createdAt,value
2023-02-23T00:00:32.900Z,92.20
2023-02-23T00:03:01.641Z,92.30
2023-02-23T00:05:30.770Z,92.30
2023-02-23T00:07:57.886Z,92.30
2023-02-23T00:10:30.323Z,92.50
2023-02-23T00:12:58.886Z,92.50
2023-02-23T00:15:29.810Z,92.70
2023-02-23T00:17:57.874Z,92.70
2023-02-23T00:20:27.339Z,92.70
2023-02-23T00:22:55.741Z,92.80
2023-02-23T00:25:23.895Z,92.60
2023-02-23T00:27:52.083Z,92.70
2023-02-23T00:30:19.681Z,92.70
2023-02-23T00:32:46.709Z,92.60
2023-02-23T00:35:19.472Z,92.60
2023-02-23T00:37:48.606Z,92.70
2023-02-23T00:40:21.335Z,92.50
2023-02-23T00:42:49.335Z,92.40
2023-02-23T00:45:15.964Z,92.40
2023-02-23T00:47:44.266Z,92.40
2023-02-23T00:50:16.483Z,92.40
2023-02-23T00:52:44.166Z,92.30
2023-02-23T00:55:15.179Z,92.10
2023-02-23T00:57:41.764Z,92.10
2023-02-23T01:00:19.529Z,92.30
2023-02-23T01:02:47.577Z,92.40
2023-02-23T01:05:14.950Z,92.20
2023-02-23T01:07:41.677Z,92.20
2023-02-23T01:10:20.878Z,92.40
2023-02-23T01:12:49.170Z,92.40
2023-02-23T01:15:16.689Z,92.30
2023-02-23T01:17:43.520Z,92.60
2023-02-23T01:20:18.033Z,92.50
2023-02-23T01:22:51.756Z,92.50
2023-02-23T01:25:18.934Z,92.40
2023-02-23T01:27:45.805Z,92.60
2023-02-23T01:30:14.970Z,92.70
2023-02-23T01:32:41.836Z,92.90
2023-02-23T01:35:10.337Z,92.90
2023-02-23T01:37:40.374Z,93.00
2023-02-23T01:40:14.078Z,92.90
2023-02-23T01:42:43.661Z,93.00
2023-02-23T01:45:34.524Z,93.10
2023-02-23T01:48:18.013Z,93.30
2023-02-23T01:50:53.226Z,93.40
2023-02-23T01:53:24.069Z,93.50
2023-02-23T01:55:54.937Z,93.60
2023-02-23T01:58:23.222Z,93.90
2023-02-23T02:00:54.665Z,93.90
2023-02-23T02:03:34.695Z,93.80
2023-02-23T02:06:03.607Z,93.90
2023-02-23T02:08:32.274Z,93.90
2023-02-23T02:10:59.252Z,94.00
2023-02-23T02:13:30.088Z,94.00
2023-02-23T02:16:23.493Z,94.10
2023-02-23T02:19:05.937Z,94.40
2023-02-23T02:21:55.932Z,94.50
2023-02-23T02:24:58.492Z,94.50
2023-02-23T02:27:43.321Z,94.40
2023-02-23T02:30:39.332Z,94.40
2023-02-23T02:33:14.766Z,94.50
2023-02-23T02:36:00.904Z,94.50
2023-02-23T02:38:42.752Z,94.50
2023-02-23T02:41:20.545Z,94.40
2023-02-23T02:44:08.375Z,94.50
2023-02-23T02:46:41.427Z,94.80
2023-02-23T02:49:26.566Z,94.80
2023-02-23T02:52:05.746Z,95.00
2023-02-23T02:55:03.385Z,94.90
2023-02-23T02:57:32.230Z,95.00
2023-02-23T03:00:17.590Z,95.00
2023-02-23T03:03:03.092Z,95.10
2023-02-23T03:06:06.154Z,95.10
2023-02-23T03:09:13.632Z,95.30
2023-02-23T03:12:09.550Z,95.30
2023-02-23T03:15:17.827Z,95.40
2023-02-23T03:18:14.753Z,95.30
2023-02-23T03:21:10.699Z,95.40
2023-02-23T03:24:17.775Z,95.50
2023-02-23T03:27:15.399Z,95.50
2023-02-23T03:30:26.520Z,95.50
2023-02-23T03:33:18.958Z,95.60
2023-02-23T03:36:11.079Z,95.70
2023-02-23T03:39:15.955Z,95.60
2023-02-23T03:42:04.835Z,95.60
2023-02-23T03:44:54.835Z,95.70
2023-02-23T03:47:43.970Z,95.80
2023-02-23T03:50:37.424Z,95.80
2023-02-23T03:53:23.511Z,96.00
2023-02-23T03:56:14.835Z,96.10
2023-02-23T03:59:03.718Z,96.20
2023-02-23T04:01:50.774Z,96.40
2023-02-23T04:04:36.112Z,96.40
2023-02-23T04:07:21.911Z,96.60
2023-02-23T04:10:08.374Z,96.50
2023-02-23T04:13:00.895Z,96.60
2023-02-23T04:15:34.892Z,96.60
2023-02-23T04:18:04.525Z,96.70
2023-02-23T04:20:31.177Z,96.60
2023-02-23T04:22:57.923Z,96.50
2023-02-23T04:25:24.541Z,96.50
2023-02-23T04:27:51.463Z,96.60
2023-02-23T04:30:18.531Z,96.70
2023-02-23T04:32:45.876Z,96.70
2023-02-23T04:35:13.370Z,96.70
2023-02-23T04:37:39.936Z,96.60
2023-02-23T04:40:07.280Z,96.60
2023-02-23T04:42:33.848Z,96.60
2023-02-23T04:45:00.410Z,96.80
2023-02-23T04:47:27.067Z,96.80
2023-02-23T04:49:54.214Z,96.80
2023-02-23T04:52:20.732Z,96.90
2023-02-23T04:54:47.842Z,97.10
2023-02-23T04:57:14.758Z,97.10
2023-02-23T04:59:41.526Z,97.10
2023-02-23T05:02:08.265Z,97.30
2023-02-23T05:04:37.753Z,97.20
2023-02-23T05:07:05.140Z,97.20
2023-02-23T05:09:32.175Z,97.40
2023-02-23T05:11:59.016Z,97.40
2023-02-23T05:14:25.679Z,97.30
2023-02-23T05:16:52.578Z,97.60
2023-02-23T05:19:19.273Z,97.50
2023-02-23T05:21:45.814Z,97.60
2023-02-23T05:24:12.366Z,97.60
2023-02-23T05:26:39.076Z,97.60
2023-02-23T05:29:06.486Z,97.50
2023-02-23T05:31:33.071Z,97.50
2023-02-23T05:33:59.744Z,97.50
2023-02-23T05:36:26.686Z,97.60
2023-02-23T05:38:53.405Z,97.60
2023-02-23T05:41:22.889Z,97.50
2023-02-23T05:43:52.234Z,97.70
2023-02-23T05:46:22.308Z,97.70
2023-02-23T05:48:48.891Z,97.90
2023-02-23T05:51:16.621Z,97.90
2023-02-23T05:53:44.307Z,97.90
2023-02-23T05:56:20.113Z,97.90
2023-02-23T05:58:52.082Z,98.00
2023-02-23T06:01:19.459Z,98.00
2023-02-23T06:03:46.439Z,98.00
2023-02-23T06:06:13.373Z,97.90
2023-02-23T06:08:40.334Z,98.00
2023-02-23T06:11:06.881Z,97.90
2023-02-23T06:13:33.607Z,98.00
2023-02-23T06:16:00.861Z,98.00
2023-02-23T06:18:28.720Z,98.10
2023-02-23T06:20:55.583Z,98.00
2023-02-23T06:23:22.178Z,97.90
2023-02-23T06:25:48.741Z,97.80
2023-02-23T06:28:15.304Z,97.80
2023-02-23T06:30:42.160Z,97.80
2023-02-23T06:33:08.751Z,97.60
2023-02-23T06:35:35.466Z,97.60
2023-02-23T06:38:02.605Z,97.60
2023-02-23T06:40:29.152Z,97.60
2023-02-23T06:42:55.920Z,97.60
2023-02-23T06:45:22.805Z,97.50
2023-02-23T06:47:49.411Z,97.50
2023-02-23T06:50:17.354Z,97.40
2023-02-23T06:52:43.942Z,97.50
2023-02-23T06:55:10.544Z,97.50
2023-02-23T06:57:37.082Z,97.60
2023-02-23T07:00:04.394Z,97.70
2023-02-23T07:02:31.672Z,97.70
2023-02-23T07:04:58.782Z,97.60
2023-02-23T07:07:25.499Z,97.50
2023-02-23T07:09:52.026Z,97.40
2023-02-23T07:12:18.668Z,97.40
2023-02-23T07:14:45.226Z,97.40
2023-02-23T07:17:12.723Z,97.20
2023-02-23T07:19:39.613Z,97.10
2023-02-23T07:22:06.192Z,97.10
2023-02-23T07:24:32.750Z,97.00
2023-02-23T07:26:59.362Z,97.00
2023-02-23T07:29:27.538Z,97.00
2023-02-23T07:31:54.926Z,96.80
2023-02-23T07:34:21.711Z,96.70
2023-02-23T07:36:48.401Z,96.80
2023-02-23T07:39:15.054Z,96.40
2023-02-23T07:41:41.739Z,96.60
2023-02-23T07:44:08.376Z,96.50
2023-02-23T07:46:34.963Z,96.70
2023-02-23T07:49:01.521Z,96.70
2023-02-23T07:51:28.090Z,96.70
2023-02-23T07:53:55.203Z,96.70
2023-02-23T07:56:21.861Z,96.80
2023-02-23T07:58:48.509Z,97.00
2023-02-23T08:01:15.249Z,96.90
2023-02-23T08:03:49.169Z,96.90
2023-02-23T08:06:17.513Z,96.80
2023-02-23T08:08:44.142Z,96.70
2023-02-23T08:11:11.774Z,96.60
2023-02-23T08:13:38.670Z,96.40
2023-02-23T08:16:05.551Z,96.30
2023-02-23T08:18:32.231Z,96.10
2023-02-23T08:21:02.889Z,96.20
2023-02-23T08:23:30.870Z,96.40
2023-02-23T08:25:59.508Z,96.30
2023-02-23T08:28:27.152Z,96.30
2023-02-23T08:30:54.632Z,96.30
2023-02-23T08:33:21.841Z,96.20
2023-02-23T08:35:48.378Z,96.30
2023-02-23T08:38:16.431Z,96.20
2023-02-23T08:40:43.245Z,96.00
2023-02-23T08:43:10.062Z,96.10
2023-02-23T08:45:39.452Z,95.90
2023-02-23T08:48:07.508Z,95.90
2023-02-23T08:50:34.050Z,95.90
2023-02-23T08:53:00.626Z,95.80
2023-02-23T08:55:27.196Z,95.60
2023-02-23T08:57:53.758Z,95.40
2023-02-23T09:00:20.821Z,95.00
2023-02-23T09:02:48.138Z,94.50
2023-02-23T09:05:15.272Z,94.80
2023-02-23T09:07:44.943Z,94.20
2023-02-23T09:10:17.268Z,94.40
2023-02-23T09:12:43.790Z,93.80
2023-02-23T09:15:10.781Z,92.30
2023-02-23T09:17:37.941Z,90.80
2023-02-23T09:20:05.877Z,91.20
2023-02-23T09:22:32.641Z,91.00
2023-02-23T09:24:59.204Z,90.20
2023-02-23T09:27:25.774Z,89.40
2023-02-23T09:29:52.303Z,86.60
2023-02-23T09:32:19.109Z,89.40
2023-02-23T09:34:45.740Z,90.00
2023-02-23T09:37:12.342Z,89.40
2023-02-23T09:39:39.314Z,87.90
2023-02-23T09:42:36.869Z,86.30
2023-02-23T09:45:15.297Z,84.70
2023-02-23T09:48:19.067Z,81.90
2023-02-23T09:50:52.291Z,77.70
2023-02-23T09:53:52.115Z,79.30
2023-02-23T09:56:39.531Z,74.70
2023-02-23T09:59:10.798Z,76.20
2023-02-23T10:01:40.859Z,75.60
2023-02-23T10:04:31.074Z,74.60
2023-02-23T10:07:04.800Z,73.30
2023-02-23T10:10:15.045Z,71.30
2023-02-23T10:13:27.343Z,66.80
2023-02-23T10:16:00.918Z,68.30
2023-02-23T10:18:50.110Z,67.70
2023-02-23T10:21:35.412Z,68.00
2023-02-23T10:24:17.103Z,68.20
2023-02-23T10:27:05.856Z,64.60
2023-02-23T10:29:37.131Z,64.10
2023-02-23T10:32:18.193Z,65.10
2023-02-23T10:34:46.781Z,65.20
2023-02-23T10:37:15.682Z,64.40
2023-02-23T10:39:42.969Z,62.60
2023-02-23T10:42:17.050Z,62.80
2023-02-23T10:44:45.363Z,64.00
2023-02-23T10:47:24.230Z,63.60
2023-02-23T10:49:53.663Z,61.00
2023-02-23T10:52:43.168Z,61.40
2023-02-23T10:55:28.754Z,61.10
2023-02-23T10:58:21.644Z,62.10
2023-02-23T11:00:58.520Z,61.40
2023-02-23T11:03:38.434Z,59.40
2023-02-23T11:06:05.711Z,62.20
2023-02-23T11:08:34.910Z,61.10
2023-02-23T11:11:08.201Z,61.70
2023-02-23T11:13:49.163Z,62.30
2023-02-23T11:16:17.099Z,62.70
2023-02-23T11:18:59.035Z,62.40
2023-02-23T11:21:35.093Z,64.30
2023-02-23T11:24:19.141Z,64.90
2023-02-23T11:26:50.259Z,65.80
2023-02-23T11:29:26.275Z,65.90
2023-02-23T11:31:56.834Z,66.10
2023-02-23T11:34:35.078Z,65.30
2023-02-23T11:37:05.979Z,65.60
2023-02-23T11:39:33.046Z,64.70
2023-02-23T11:42:26.656Z,65.50
2023-02-23T11:45:06.495Z,65.70
2023-02-23T11:47:40.504Z,65.00
2023-02-23T11:50:08.418Z,65.10
2023-02-23T11:52:36.401Z,64.90
2023-02-23T11:55:06.944Z,65.30
2023-02-23T11:57:35.690Z,64.90
2023-02-23T12:00:12.825Z,63.30
2023-02-23T12:03:17.312Z,64.70
2023-02-23T12:05:52.732Z,65.10
2023-02-23T12:08:35.396Z,64.60
2023-02-23T12:11:06.531Z,66.30
2023-02-23T12:13:48.212Z,67.00
2023-02-23T12:16:19.345Z,67.10
2023-02-23T12:19:11.294Z,66.50
2023-02-23T12:21:43.281Z,66.70
2023-02-23T12:24:15.575Z,66.70
2023-02-23T12:26:55.350Z,66.30
2023-02-23T12:29:31.879Z,65.90
2023-02-23T12:32:02.968Z,64.50
2023-02-23T12:34:43.919Z,65.00
2023-02-23T12:37:49.538Z,64.40
2023-02-23T12:40:19.110Z,63.50
2023-02-23T12:42:58.210Z,64.90
2023-02-23T12:45:47.167Z,65.70
2023-02-23T12:49:00.110Z,66.60
2023-02-23T12:51:35.367Z,67.30
2023-02-23T12:54:02.859Z,68.50
2023-02-23T12:56:35.564Z,68.90
2023-02-23T12:59:26.306Z,69.50
2023-02-23T13:01:54.568Z,70.50
2023-02-23T13:04:42.419Z,69.60
2023-02-23T13:07:44.689Z,69.80
2023-02-23T13:11:02.864Z,69.60
2023-02-23T13:13:48.802Z,69.70
2023-02-23T13:16:35.440Z,70.30
2023-02-23T13:19:18.463Z,69.30
2023-02-23T13:21:49.437Z,71.00
2023-02-23T13:24:18.892Z,70.40
2023-02-23T13:27:00.493Z,70.40
2023-02-23T13:29:42.359Z,71.00
2023-02-23T13:32:16.057Z,70.90
2023-02-23T13:34:45.126Z,70.80
2023-02-23T13:37:15.421Z,71.00
2023-02-23T13:40:07.054Z,70.70
2023-02-23T13:43:01.541Z,70.10
2023-02-23T13:46:14.734Z,69.70
2023-02-23T13:48:56.223Z,69.90
2023-02-23T13:51:32.040Z,70.40
2023-02-23T13:54:04.088Z,70.80
2023-02-23T13:56:37.862Z,71.00
2023-02-23T13:59:09.417Z,72.40
2023-02-23T14:01:43.680Z,71.50
2023-02-23T14:04:16.494Z,71.20
2023-02-23T14:07:05.268Z,71.70
2023-02-23T14:09:36.887Z,70.70
2023-02-23T14:12:06.161Z,71.10
2023-02-23T14:14:32.997Z,71.70
2023-02-23T14:17:12.490Z,70.40
2023-02-23T14:20:01.783Z,70.70
2023-02-23T14:22:28.373Z,70.50
2023-02-23T14:25:32.311Z,70.10
2023-02-23T14:28:06.512Z,70.30
2023-02-23T14:30:50.816Z,69.70
2023-02-23T14:33:38.341Z,68.40
2023-02-23T14:36:23.834Z,69.60
2023-02-23T14:39:00.960Z,69.60
2023-02-23T14:41:30.112Z,69.80
2023-02-23T14:44:27.249Z,68.90
2023-02-23T14:47:18.854Z,68.90
2023-02-23T14:49:54.547Z,68.40
2023-02-23T14:52:24.501Z,68.80
2023-02-23T14:54:52.462Z,69.50
2023-02-23T14:57:25.627Z,70.10
2023-02-23T15:00:01.032Z,70.10
2023-02-23T15:02:29.817Z,69.50
2023-02-23T15:04:57.010Z,70.10
2023-02-23T15:07:41.124Z,69.80
2023-02-23T15:10:26.094Z,69.20
2023-02-23T15:12:53.592Z,69.00
2023-02-23T15:15:23.890Z,68.80
2023-02-23T15:17:54.437Z,69.30
2023-02-23T15:20:28.673Z,69.40
2023-02-23T15:22:59.062Z,70.30
2023-02-23T15:25:34.537Z,69.80
2023-02-23T15:28:16.466Z,69.70
2023-02-23T15:30:48.560Z,69.90
2023-02-23T15:33:23.321Z,68.80
2023-02-23T15:36:20.142Z,68.90
2023-02-23T15:38:49.519Z,69.40
2023-02-23T15:41:29.059Z,69.60
2023-02-23T15:44:20.029Z,70.10
2023-02-23T15:46:52.469Z,70.10
2023-02-23T15:49:21.758Z,69.70
2023-02-23T15:51:51.280Z,69.50
2023-02-23T15:54:50.511Z,69.90
2023-02-23T15:57:27.248Z,69.80
2023-02-23T15:59:58.218Z,70.20
2023-02-23T16:02:25.323Z,70.50
2023-02-23T16:04:57.453Z,70.50
2023-02-23T16:07:26.519Z,70.50
2023-02-23T16:10:22.453Z,70.50
2023-02-23T16:12:53.371Z,70.60
2023-02-23T16:15:34.445Z,70.90
2023-02-23T16:18:02.267Z,71.20
2023-02-23T16:20:44.219Z,70.60
2023-02-23T16:23:36.894Z,70.50
2023-02-23T16:26:23.979Z,71.30
2023-02-23T16:29:00.136Z,71.40
2023-02-23T16:31:54.886Z,71.50
2023-02-23T16:34:30.985Z,71.60
2023-02-23T16:37:04.300Z,71.50
2023-02-23T16:39:34.115Z,71.60
2023-02-23T16:42:00.761Z,71.80
2023-02-23T16:44:37.801Z,72.10
2023-02-23T16:47:09.691Z,72.60
2023-02-23T16:49:36.279Z,73.10
2023-02-23T16:52:12.739Z,73.40
2023-02-23T16:54:39.310Z,74.00
2023-02-23T16:57:18.282Z,74.40
2023-02-23T16:59:44.805Z,74.80
2023-02-23T17:02:13.712Z,75.00
2023-02-23T17:04:46.027Z,75.40
2023-02-23T17:07:12.616Z,74.90
2023-02-23T17:09:39.213Z,74.90
2023-02-23T17:12:06.043Z,75.60
2023-02-23T17:14:32.903Z,75.20
2023-02-23T17:17:02.267Z,75.30
2023-02-23T17:19:28.910Z,75.60
2023-02-23T17:21:55.436Z,76.10
2023-02-23T17:24:25.857Z,76.10
2023-02-23T17:26:53.224Z,76.40
2023-02-23T17:29:19.816Z,76.70
2023-02-23T17:31:46.588Z,76.90
2023-02-23T17:34:13.546Z,77.20
2023-02-23T17:36:40.107Z,77.70
2023-02-23T17:39:09.362Z,77.30
2023-02-23T17:41:36.088Z,77.30
2023-02-23T17:44:05.600Z,77.30
2023-02-23T17:46:32.281Z,77.80
2023-02-23T17:48:58.905Z,78.10
2023-02-23T17:51:25.684Z,78.60
2023-02-23T17:53:52.449Z,78.90
2023-02-23T17:56:20.037Z,79.10
2023-02-23T17:58:50.240Z,79.30
2023-02-23T18:01:17.716Z,79.50
2023-02-23T18:03:44.795Z,79.70
2023-02-23T18:06:12.950Z,79.80
2023-02-23T18:08:45.188Z,80.30
2023-02-23T18:11:12.247Z,80.60
2023-02-23T18:13:38.856Z,80.80
2023-02-23T18:16:09.331Z,81.00
2023-02-23T18:18:38.521Z,81.10
2023-02-23T18:21:14.203Z,81.00
2023-02-23T18:23:40.740Z,81.00
2023-02-23T18:26:13.201Z,81.30
2023-02-23T18:28:44.096Z,81.40
2023-02-23T18:31:16.734Z,81.00
2023-02-23T18:33:44.650Z,81.80
2023-02-23T18:36:20.266Z,81.20
2023-02-23T18:38:47.164Z,80.90
2023-02-23T18:41:14.039Z,80.80
2023-02-23T18:43:40.835Z,81.40
2023-02-23T18:46:09.433Z,81.10
2023-02-23T18:48:40.089Z,80.50
2023-02-23T18:51:07.335Z,80.60
2023-02-23T18:53:37.196Z,80.60
2023-02-23T18:56:08.694Z,81.30
2023-02-23T18:58:35.706Z,81.00
2023-02-23T19:01:02.702Z,81.60
2023-02-23T19:03:29.307Z,81.40
2023-02-23T19:05:55.886Z,80.80
2023-02-23T19:08:22.956Z,80.60
2023-02-23T19:10:51.871Z,80.50
2023-02-23T19:13:21.928Z,80.60
2023-02-23T19:15:49.664Z,80.80
2023-02-23T19:18:16.358Z,80.60
2023-02-23T19:20:42.941Z,80.60
2023-02-23T19:23:12.049Z,80.70
2023-02-23T19:25:39.490Z,80.80
2023-02-23T19:28:08.927Z,81.00
2023-02-23T19:30:35.497Z,81.20
2023-02-23T19:33:02.288Z,81.30
2023-02-23T19:35:28.912Z,81.50
2023-02-23T19:37:57.423Z,81.60
2023-02-23T19:40:29.054Z,81.40
2023-02-23T19:42:55.698Z,81.50
2023-02-23T19:45:24.542Z,81.70
2023-02-23T19:47:52.973Z,82.10
2023-02-23T19:50:19.962Z,81.90
2023-02-23T19:52:47.458Z,82.00
2023-02-23T19:55:14.816Z,81.60
2023-02-23T19:57:41.955Z,81.80
2023-02-23T20:00:11.310Z,82.30
2023-02-23T20:02:42.514Z,82.00
2023-02-23T20:05:14.171Z,82.30
2023-02-23T20:07:40.943Z,82.60
2023-02-23T20:10:10.289Z,82.30
2023-02-23T20:12:37.233Z,82.40
2023-02-23T20:15:04.072Z,82.60
2023-02-23T20:17:30.623Z,82.70
2023-02-23T20:19:57.231Z,83.10
2023-02-23T20:22:23.806Z,83.10
2023-02-23T20:24:50.408Z,83.40
2023-02-23T20:27:17.000Z,84.00
2023-02-23T20:29:44.069Z,84.00
2023-02-23T20:32:10.765Z,84.00
2023-02-23T20:34:39.128Z,84.20
2023-02-23T20:37:05.715Z,83.80
2023-02-23T20:39:32.242Z,83.70
2023-02-23T20:41:58.881Z,84.10
2023-02-23T20:44:25.552Z,84.60
2023-02-23T20:46:52.172Z,84.70
2023-02-23T20:49:18.970Z,84.70
2023-02-23T20:51:46.936Z,85.00
2023-02-23T20:54:14.548Z,85.50
2023-02-23T20:56:41.993Z,85.40
2023-02-23T20:59:11.129Z,85.40
2023-02-23T21:01:39.989Z,86.00
2023-02-23T21:04:07.395Z,85.30
2023-02-23T21:06:34.463Z,85.10
2023-02-23T21:09:12.485Z,85.00
2023-02-23T21:11:39.005Z,85.00
2023-02-23T21:14:06.066Z,85.30
2023-02-23T21:16:32.631Z,85.80
2023-02-23T21:19:04.984Z,85.70
2023-02-23T21:21:38.174Z,85.90
2023-02-23T21:24:05.251Z,86.20
2023-02-23T21:26:32.066Z,86.10
2023-02-23T21:28:58.699Z,85.80
2023-02-23T21:31:26.064Z,86.00
2023-02-23T21:33:52.741Z,85.60
2023-02-23T21:36:19.699Z,85.60
2023-02-23T21:38:46.277Z,86.00
2023-02-23T21:41:13.774Z,86.00
2023-02-23T21:43:42.340Z,86.10
2023-02-23T21:46:11.254Z,86.30
2023-02-23T21:48:37.784Z,86.40
2023-02-23T21:51:06.186Z,86.50
2023-02-23T21:53:33.428Z,86.70
2023-02-23T21:56:11.432Z,87.00
2023-02-23T21:58:40.048Z,86.70
2023-02-23T22:01:14.675Z,86.50
2023-02-23T22:03:44.786Z,86.80
2023-02-23T22:06:16.927Z,87.50
2023-02-23T22:08:44.656Z,87.50
2023-02-23T22:11:17.177Z,87.80
2023-02-23T22:13:48.543Z,87.40
2023-02-23T22:16:17.875Z,87.30
2023-02-23T22:18:44.992Z,87.30
2023-02-23T22:21:12.603Z,87.60
2023-02-23T22:23:43.716Z,87.70
2023-02-23T22:26:10.404Z,88.50
2023-02-23T22:28:37.101Z,88.60
2023-02-23T22:31:06.715Z,88.60
2023-02-23T22:33:34.210Z,88.90
2023-02-23T22:36:06.704Z,89.10
2023-02-23T22:38:34.040Z,89.10
2023-02-23T22:41:00.645Z,89.10
2023-02-23T22:43:28.044Z,89.70
2023-02-23T22:45:56.300Z,88.90
2023-02-23T22:48:24.163Z,89.10
2023-02-23T22:50:50.966Z,89.40
2023-02-23T22:53:17.967Z,89.60
2023-02-23T22:55:48.860Z,89.70
2023-02-23T22:58:15.867Z,89.90
2023-02-23T23:01:01.851Z,89.70
2023-02-23T23:03:48.893Z,90.00
2023-02-23T23:06:22.471Z,90.00
2023-02-23T23:08:54.835Z,90.10
2023-02-23T23:11:30.622Z,90.30
2023-02-23T23:14:02.745Z,90.30
2023-02-23T23:16:32.560Z,90.50
2023-02-23T23:19:11.746Z,90.50
2023-02-23T23:21:40.592Z,90.40
2023-02-23T23:24:07.953Z,90.50
2023-02-23T23:26:39.446Z,90.90
2023-02-23T23:29:09.973Z,91.10
2023-02-23T23:31:38.073Z,91.10
2023-02-23T23:34:09.456Z,91.20
2023-02-23T23:36:46.633Z,91.30
2023-02-23T23:39:15.934Z,91.40
2023-02-23T23:41:48.690Z,91.20
2023-02-23T23:44:16.970Z,91.10
2023-02-23T23:46:45.636Z,91.10
2023-02-23T23:49:15.780Z,91.00
2023-02-23T23:51:45.349Z,91.00
2023-02-23T23:54:15.448Z,91.10
2023-02-23T23:56:43.452Z,91.00
2023-02-23T23:59:16.057Z,91.00
